sensor_id;sensor_type;location;lat;lon;timestamp;P1;durP1;ratioP1;P2;durP2;ratioP2
54897;SDS011;40800;52.704;6.398;2022-12-07T00:00:51;12.57;;;10.68;;
54897;SDS011;40800;52.704;6.398;2022-12-07T00:03:17;11.77;;;10.68;;
54897;SDS011;40800;52.704;6.398;2022-12-07T00:05:43;11.25;;;10.25;;
54897;SDS011;40800;52.704;6.398;2022-12-07T00:08:08;11.38;;;10.32;;
54897;SDS011;40800;52.704;6.398;2022-12-07T00:10:34;11.45;;;10.20;;
54897;SDS011;40800;52.704;6.398;2022-12-07T00:12:59;12.55;;;11.18;;
54897;SDS011;40800;52.704;6.398;2022-12-07T00:15:25;13.05;;;10.27;;
54897;SDS011;40800;52.704;6.398;2022-12-07T00:17:51;11.50;;;10.50;;
54897;SDS011;40800;52.704;6.398;2022-12-07T00:20:16;11.65;;;10.55;;
54897;SDS011;40800;52.704;6.398;2022-12-07T00:22:42;11.95;;;10.70;;
54897;SDS011;40800;52.704;6.398;2022-12-07T00:25:07;11.68;;;10.73;;
54897;SDS011;40800;52.704;6.398;2022-12-07T00:27:33;11.60;;;10.60;;
54897;SDS011;40800;52.704;6.398;2022-12-07T00:29:59;12.50;;;11.10;;
54897;SDS011;40800;52.704;6.398;2022-12-07T00:32:24;11.43;;;10.30;;
54897;SDS011;40800;52.704;6.398;2022-12-07T00:34:50;11.98;;;10.73;;
54897;SDS011;40800;52.704;6.398;2022-12-07T00:37:15;11.73;;;10.63;;
54897;SDS011;40800;52.704;6.398;2022-12-07T00:39:41;11.68;;;10.68;;
54897;SDS011;40800;52.704;6.398;2022-12-07T00:42:06;11.55;;;10.52;;
54897;SDS011;40800;52.704;6.398;2022-12-07T00:44:32;12.05;;;10.68;;
54897;SDS011;40800;52.704;6.398;2022-12-07T00:46:57;12.18;;;11.00;;
54897;SDS011;40800;52.704;6.398;2022-12-07T00:49:23;13.75;;;10.55;;
54897;SDS011;40800;52.704;6.398;2022-12-07T00:51:49;11.63;;;10.40;;
54897;SDS011;40800;52.704;6.398;2022-12-07T00:54:14;11.45;;;10.23;;
54897;SDS011;40800;52.704;6.398;2022-12-07T00:56:40;11.70;;;10.57;;
54897;SDS011;40800;52.704;6.398;2022-12-07T00:59:06;12.93;;;10.70;;
54897;SDS011;40800;52.704;6.398;2022-12-07T01:01:35;11.75;;;10.60;;
54897;SDS011;40800;52.704;6.398;2022-12-07T01:04:01;11.52;;;10.38;;
54897;SDS011;40800;52.704;6.398;2022-12-07T01:06:28;12.25;;;10.38;;
54897;SDS011;40800;52.704;6.398;2022-12-07T01:08:54;11.18;;;10.18;;
54897;SDS011;40800;52.704;6.398;2022-12-07T01:11:21;16.00;;;11.20;;
54897;SDS011;40800;52.704;6.398;2022-12-07T01:13:52;11.63;;;10.43;;
54897;SDS011;40800;52.704;6.398;2022-12-07T01:16:19;12.95;;;10.63;;
54897;SDS011;40800;52.704;6.398;2022-12-07T01:18:47;15.05;;;10.35;;
54897;SDS011;40800;52.704;6.398;2022-12-07T01:21:21;19.08;;;10.63;;
54897;SDS011;40800;52.704;6.398;2022-12-07T01:23:51;11.38;;;10.13;;
54897;SDS011;40800;52.704;6.398;2022-12-07T01:26:18;14.15;;;10.32;;
54897;SDS011;40800;52.704;6.398;2022-12-07T01:28:46;11.30;;;10.20;;
54897;SDS011;40800;52.704;6.398;2022-12-07T01:31:15;12.48;;;10.93;;
54897;SDS011;40800;52.704;6.398;2022-12-07T01:33:43;12.23;;;10.35;;
54897;SDS011;40800;52.704;6.398;2022-12-07T01:36:17;12.20;;;10.35;;
54897;SDS011;40800;52.704;6.398;2022-12-07T01:38:45;10.85;;;9.82;;
54897;SDS011;40800;52.704;6.398;2022-12-07T01:41:12;13.23;;;10.38;;
54897;SDS011;40800;52.704;6.398;2022-12-07T01:44:07;13.02;;;10.25;;
54897;SDS011;40800;52.704;6.398;2022-12-07T01:46:46;10.98;;;9.88;;
54897;SDS011;40800;52.704;6.398;2022-12-07T01:52:07;14.43;;;10.60;;
54897;SDS011;40800;52.704;6.398;2022-12-07T01:54:52;12.68;;;10.13;;
54897;SDS011;40800;52.704;6.398;2022-12-07T01:57:21;13.52;;;10.48;;
54897;SDS011;40800;52.704;6.398;2022-12-07T01:59:48;11.50;;;10.47;;
54897;SDS011;40800;52.704;6.398;2022-12-07T02:02:29;11.82;;;10.00;;
54897;SDS011;40800;52.704;6.398;2022-12-07T02:05:00;11.75;;;10.18;;
54897;SDS011;40800;52.704;6.398;2022-12-07T02:07:27;14.57;;;10.38;;
54897;SDS011;40800;52.704;6.398;2022-12-07T02:09:56;11.05;;;9.75;;
54897;SDS011;40800;52.704;6.398;2022-12-07T02:12:21;13.60;;;10.57;;
54897;SDS011;40800;52.704;6.398;2022-12-07T02:14:49;14.25;;;10.40;;
54897;SDS011;40800;52.704;6.398;2022-12-07T02:17:28;14.23;;;9.80;;
54897;SDS011;40800;52.704;6.398;2022-12-07T02:20:21;14.23;;;9.90;;
54897;SDS011;40800;52.704;6.398;2022-12-07T02:34:31;14.30;;;10.43;;
54897;SDS011;40800;52.704;6.398;2022-12-07T02:37:18;14.50;;;10.27;;
54897;SDS011;40800;52.704;6.398;2022-12-07T02:40:10;16.45;;;10.77;;
54897;SDS011;40800;52.704;6.398;2022-12-07T02:42:46;13.35;;;10.13;;
54897;SDS011;40800;52.704;6.398;2022-12-07T02:45:17;15.40;;;10.35;;
54897;SDS011;40800;52.704;6.398;2022-12-07T02:47:47;12.82;;;10.18;;
54897;SDS011;40800;52.704;6.398;2022-12-07T02:50:17;13.65;;;10.50;;
54897;SDS011;40800;52.704;6.398;2022-12-07T02:52:46;11.38;;;10.05;;
54897;SDS011;40800;52.704;6.398;2022-12-07T02:55:12;12.52;;;10.30;;
54897;SDS011;40800;52.704;6.398;2022-12-07T03:03:38;12.77;;;10.38;;
54897;SDS011;40800;52.704;6.398;2022-12-07T03:06:14;17.50;;;10.48;;
54897;SDS011;40800;52.704;6.398;2022-12-07T03:14:00;12.90;;;9.93;;
54897;SDS011;40800;52.704;6.398;2022-12-07T03:16:42;13.48;;;10.30;;
54897;SDS011;40800;52.704;6.398;2022-12-07T03:19:42;15.60;;;10.35;;
54897;SDS011;40800;52.704;6.398;2022-12-07T03:22:11;11.88;;;9.80;;
54897;SDS011;40800;52.704;6.398;2022-12-07T03:27:19;11.18;;;9.93;;
54897;SDS011;40800;52.704;6.398;2022-12-07T03:29:54;12.00;;;10.00;;
54897;SDS011;40800;52.704;6.398;2022-12-07T03:32:34;11.55;;;9.88;;
54897;SDS011;40800;52.704;6.398;2022-12-07T03:35:26;12.45;;;9.68;;
54897;SDS011;40800;52.704;6.398;2022-12-07T03:43:12;10.75;;;9.63;;
54897;SDS011;40800;52.704;6.398;2022-12-07T03:45:39;13.40;;;10.63;;
54897;SDS011;40800;52.704;6.398;2022-12-07T03:50:46;10.48;;;9.45;;
54897;SDS011;40800;52.704;6.398;2022-12-07T03:53:23;15.32;;;9.77;;
54897;SDS011;40800;52.704;6.398;2022-12-07T03:56:04;12.75;;;9.68;;
54897;SDS011;40800;52.704;6.398;2022-12-07T04:00:57;10.85;;;9.73;;
54897;SDS011;40800;52.704;6.398;2022-12-07T04:03:23;10.57;;;9.60;;
54897;SDS011;40800;52.704;6.398;2022-12-07T04:05:48;12.98;;;9.70;;
54897;SDS011;40800;52.704;6.398;2022-12-07T04:08:14;10.48;;;9.48;;
54897;SDS011;40800;52.704;6.398;2022-12-07T04:10:40;13.80;;;9.93;;
54897;SDS011;40800;52.704;6.398;2022-12-07T04:13:05;11.05;;;9.85;;
54897;SDS011;40800;52.704;6.398;2022-12-07T04:15:31;14.18;;;10.20;;
54897;SDS011;40800;52.704;6.398;2022-12-07T04:17:56;13.07;;;9.88;;
54897;SDS011;40800;52.704;6.398;2022-12-07T04:20:22;12.23;;;9.80;;
54897;SDS011;40800;52.704;6.398;2022-12-07T04:22:47;13.38;;;9.68;;
54897;SDS011;40800;52.704;6.398;2022-12-07T04:25:13;14.95;;;10.13;;
54897;SDS011;40800;52.704;6.398;2022-12-07T04:27:39;11.88;;;9.82;;
54897;SDS011;40800;52.704;6.398;2022-12-07T04:30:04;16.33;;;10.20;;
54897;SDS011;40800;52.704;6.398;2022-12-07T04:32:30;12.40;;;10.10;;
54897;SDS011;40800;52.704;6.398;2022-12-07T04:34:56;11.70;;;9.60;;
54897;SDS011;40800;52.704;6.398;2022-12-07T04:37:22;13.05;;;9.98;;
54897;SDS011;40800;52.704;6.398;2022-12-07T04:39:49;11.25;;;9.85;;
54897;SDS011;40800;52.704;6.398;2022-12-07T04:42:14;14.15;;;9.93;;
54897;SDS011;40800;52.704;6.398;2022-12-07T04:44:40;13.82;;;9.90;;
54897;SDS011;40800;52.704;6.398;2022-12-07T04:47:06;10.98;;;9.48;;
54897;SDS011;40800;52.704;6.398;2022-12-07T04:49:32;13.25;;;9.73;;
54897;SDS011;40800;52.704;6.398;2022-12-07T04:51:57;15.13;;;9.98;;
54897;SDS011;40800;52.704;6.398;2022-12-07T04:54:23;11.68;;;9.70;;
54897;SDS011;40800;52.704;6.398;2022-12-07T04:56:49;12.23;;;10.10;;
54897;SDS011;40800;52.704;6.398;2022-12-07T04:59:15;11.20;;;9.80;;
54897;SDS011;40800;52.704;6.398;2022-12-07T05:01:41;11.82;;;9.85;;
54897;SDS011;40800;52.704;6.398;2022-12-07T05:04:07;10.75;;;9.68;;
54897;SDS011;40800;52.704;6.398;2022-12-07T05:06:33;18.83;;;9.88;;
54897;SDS011;40800;52.704;6.398;2022-12-07T05:08:59;15.27;;;9.90;;
54897;SDS011;40800;52.704;6.398;2022-12-07T05:11:24;12.82;;;9.98;;
54897;SDS011;40800;52.704;6.398;2022-12-07T05:14:06;15.43;;;11.02;;
54897;SDS011;40800;52.704;6.398;2022-12-07T05:16:40;10.70;;;9.60;;
54897;SDS011;40800;52.704;6.398;2022-12-07T05:19:07;11.25;;;9.80;;
54897;SDS011;40800;52.704;6.398;2022-12-07T05:21:34;11.93;;;9.80;;
54897;SDS011;40800;52.704;6.398;2022-12-07T05:24:00;12.27;;;10.13;;
54897;SDS011;40800;52.704;6.398;2022-12-07T05:26:26;13.10;;;9.50;;
54897;SDS011;40800;52.704;6.398;2022-12-07T05:28:54;12.93;;;9.45;;
54897;SDS011;40800;52.704;6.398;2022-12-07T05:31:21;11.48;;;9.70;;
54897;SDS011;40800;52.704;6.398;2022-12-07T05:33:47;12.15;;;9.73;;
54897;SDS011;40800;52.704;6.398;2022-12-07T05:36:13;12.18;;;9.65;;
54897;SDS011;40800;52.704;6.398;2022-12-07T05:38:39;16.83;;;9.82;;
54897;SDS011;40800;52.704;6.398;2022-12-07T05:41:05;12.95;;;9.38;;
54897;SDS011;40800;52.704;6.398;2022-12-07T05:43:32;13.77;;;9.57;;
54897;SDS011;40800;52.704;6.398;2022-12-07T05:45:58;11.98;;;9.68;;
54897;SDS011;40800;52.704;6.398;2022-12-07T05:48:25;11.63;;;10.07;;
54897;SDS011;40800;52.704;6.398;2022-12-07T05:50:51;12.73;;;9.85;;
54897;SDS011;40800;52.704;6.398;2022-12-07T05:53:17;11.18;;;9.80;;
54897;SDS011;40800;52.704;6.398;2022-12-07T05:55:43;11.83;;;9.63;;
54897;SDS011;40800;52.704;6.398;2022-12-07T05:58:09;11.35;;;9.48;;
54897;SDS011;40800;52.704;6.398;2022-12-07T06:00:56;10.68;;;9.63;;
54897;SDS011;40800;52.704;6.398;2022-12-07T06:03:22;10.93;;;9.52;;
54897;SDS011;40800;52.704;6.398;2022-12-07T06:05:48;14.10;;;10.05;;
54897;SDS011;40800;52.704;6.398;2022-12-07T06:08:14;13.27;;;9.82;;
54897;SDS011;40800;52.704;6.398;2022-12-07T06:10:40;13.40;;;10.00;;
54897;SDS011;40800;52.704;6.398;2022-12-07T06:13:07;12.20;;;10.30;;
54897;SDS011;40800;52.704;6.398;2022-12-07T06:15:35;11.27;;;9.77;;
54897;SDS011;40800;52.704;6.398;2022-12-07T06:18:01;10.80;;;9.68;;
54897;SDS011;40800;52.704;6.398;2022-12-07T06:20:26;13.95;;;10.25;;
54897;SDS011;40800;52.704;6.398;2022-12-07T06:22:52;13.23;;;10.10;;
54897;SDS011;40800;52.704;6.398;2022-12-07T06:25:18;13.93;;;9.93;;
54897;SDS011;40800;52.704;6.398;2022-12-07T06:27:43;12.73;;;10.02;;
54897;SDS011;40800;52.704;6.398;2022-12-07T06:30:09;13.80;;;10.30;;
54897;SDS011;40800;52.704;6.398;2022-12-07T06:32:35;14.15;;;10.10;;
54897;SDS011;40800;52.704;6.398;2022-12-07T06:35:01;11.77;;;9.93;;
54897;SDS011;40800;52.704;6.398;2022-12-07T06:37:27;13.02;;;9.88;;
54897;SDS011;40800;52.704;6.398;2022-12-07T06:39:53;13.20;;;10.15;;
54897;SDS011;40800;52.704;6.398;2022-12-07T06:42:19;13.82;;;10.48;;
54897;SDS011;40800;52.704;6.398;2022-12-07T06:44:44;13.95;;;10.25;;
54897;SDS011;40800;52.704;6.398;2022-12-07T06:47:10;15.38;;;10.40;;
54897;SDS011;40800;52.704;6.398;2022-12-07T06:49:36;11.43;;;9.90;;
54897;SDS011;40800;52.704;6.398;2022-12-07T06:52:02;12.38;;;10.25;;
54897;SDS011;40800;52.704;6.398;2022-12-07T06:54:29;11.65;;;9.65;;
54897;SDS011;40800;52.704;6.398;2022-12-07T06:56:55;11.10;;;10.00;;
54897;SDS011;40800;52.704;6.398;2022-12-07T06:59:21;12.45;;;10.20;;
54897;SDS011;40800;52.704;6.398;2022-12-07T07:01:46;10.90;;;9.73;;
54897;SDS011;40800;52.704;6.398;2022-12-07T07:04:12;12.40;;;9.95;;
54897;SDS011;40800;52.704;6.398;2022-12-07T07:06:37;10.93;;;9.80;;
54897;SDS011;40800;52.704;6.398;2022-12-07T07:09:03;13.90;;;10.05;;
54897;SDS011;40800;52.704;6.398;2022-12-07T07:11:28;13.20;;;9.93;;
54897;SDS011;40800;52.704;6.398;2022-12-07T07:13:54;13.95;;;10.15;;
54897;SDS011;40800;52.704;6.398;2022-12-07T07:16:22;11.35;;;10.05;;
54897;SDS011;40800;52.704;6.398;2022-12-07T07:18:48;10.82;;;9.60;;
54897;SDS011;40800;52.704;6.398;2022-12-07T07:21:14;10.98;;;9.88;;
54897;SDS011;40800;52.704;6.398;2022-12-07T07:23:40;11.27;;;9.75;;
54897;SDS011;40800;52.704;6.398;2022-12-07T07:26:05;10.93;;;9.85;;
54897;SDS011;40800;52.704;6.398;2022-12-07T07:28:31;13.25;;;10.23;;
54897;SDS011;40800;52.704;6.398;2022-12-07T07:30:56;15.63;;;10.13;;
54897;SDS011;40800;52.704;6.398;2022-12-07T07:33:22;10.55;;;9.52;;
54897;SDS011;40800;52.704;6.398;2022-12-07T07:35:47;14.70;;;9.95;;
54897;SDS011;40800;52.704;6.398;2022-12-07T07:38:13;11.90;;;9.52;;
54897;SDS011;40800;52.704;6.398;2022-12-07T07:40:39;11.93;;;9.68;;
54897;SDS011;40800;52.704;6.398;2022-12-07T07:43:04;10.40;;;9.45;;
54897;SDS011;40800;52.704;6.398;2022-12-07T07:45:30;13.95;;;9.82;;
54897;SDS011;40800;52.704;6.398;2022-12-07T07:47:56;10.48;;;9.43;;
54897;SDS011;40800;52.704;6.398;2022-12-07T07:50:22;10.98;;;9.63;;
54897;SDS011;40800;52.704;6.398;2022-12-07T07:52:48;11.25;;;9.55;;
54897;SDS011;40800;52.704;6.398;2022-12-07T07:55:14;10.00;;;9.20;;
54897;SDS011;40800;52.704;6.398;2022-12-07T07:57:40;11.15;;;9.57;;
54897;SDS011;40800;52.704;6.398;2022-12-07T08:00:06;10.50;;;9.57;;
54897;SDS011;40800;52.704;6.398;2022-12-07T08:02:34;10.70;;;9.70;;
54897;SDS011;40800;52.704;6.398;2022-12-07T08:04:59;11.40;;;9.45;;
54897;SDS011;40800;52.704;6.398;2022-12-07T08:07:26;11.20;;;10.10;;
54897;SDS011;40800;52.704;6.398;2022-12-07T08:09:53;11.75;;;10.35;;
54897;SDS011;40800;52.704;6.398;2022-12-07T08:12:18;10.35;;;9.48;;
54897;SDS011;40800;52.704;6.398;2022-12-07T08:14:44;11.38;;;9.80;;
54897;SDS011;40800;52.704;6.398;2022-12-07T08:17:10;10.80;;;9.73;;
54897;SDS011;40800;52.704;6.398;2022-12-07T08:19:36;11.23;;;9.70;;
54897;SDS011;40800;52.704;6.398;2022-12-07T08:22:01;12.85;;;9.70;;
54897;SDS011;40800;52.704;6.398;2022-12-07T08:24:27;10.68;;;9.68;;
54897;SDS011;40800;52.704;6.398;2022-12-07T08:26:53;11.38;;;9.90;;
54897;SDS011;40800;52.704;6.398;2022-12-07T08:29:19;10.60;;;9.60;;
54897;SDS011;40800;52.704;6.398;2022-12-07T08:31:45;10.30;;;9.30;;
54897;SDS011;40800;52.704;6.398;2022-12-07T08:34:11;10.82;;;9.75;;
54897;SDS011;40800;52.704;6.398;2022-12-07T08:36:37;11.90;;;10.10;;
54897;SDS011;40800;52.704;6.398;2022-12-07T08:39:03;11.43;;;10.40;;
54897;SDS011;40800;52.704;6.398;2022-12-07T08:41:28;12.00;;;10.80;;
54897;SDS011;40800;52.704;6.398;2022-12-07T08:43:54;11.55;;;10.35;;
54897;SDS011;40800;52.704;6.398;2022-12-07T08:48:55;13.77;;;10.88;;
54897;SDS011;40800;52.704;6.398;2022-12-07T08:51:35;12.57;;;10.40;;
54897;SDS011;40800;52.704;6.398;2022-12-07T08:54:02;12.47;;;10.60;;
54897;SDS011;40800;52.704;6.398;2022-12-07T08:56:30;13.68;;;11.15;;
54897;SDS011;40800;52.704;6.398;2022-12-07T08:58:56;12.15;;;10.90;;
54897;SDS011;40800;52.704;6.398;2022-12-07T09:01:22;12.90;;;11.25;;
54897;SDS011;40800;52.704;6.398;2022-12-07T09:03:48;13.25;;;10.90;;
54897;SDS011;40800;52.704;6.398;2022-12-07T09:06:14;14.43;;;11.05;;
54897;SDS011;40800;52.704;6.398;2022-12-07T09:08:40;12.85;;;10.48;;
54897;SDS011;40800;52.704;6.398;2022-12-07T09:11:09;14.05;;;10.80;;
54897;SDS011;40800;52.704;6.398;2022-12-07T09:13:34;11.68;;;10.48;;
54897;SDS011;40800;52.704;6.398;2022-12-07T09:16:00;12.18;;;10.98;;
54897;SDS011;40800;52.704;6.398;2022-12-07T09:18:26;15.18;;;11.32;;
54897;SDS011;40800;52.704;6.398;2022-12-07T09:20:51;13.23;;;10.50;;
54897;SDS011;40800;52.704;6.398;2022-12-07T09:23:17;12.68;;;10.68;;
54897;SDS011;40800;52.704;6.398;2022-12-07T09:25:43;11.85;;;10.45;;
54897;SDS011;40800;52.704;6.398;2022-12-07T09:28:09;11.70;;;10.10;;
54897;SDS011;40800;52.704;6.398;2022-12-07T09:30:34;13.45;;;10.65;;
54897;SDS011;40800;52.704;6.398;2022-12-07T09:33:00;12.10;;;10.90;;
54897;SDS011;40800;52.704;6.398;2022-12-07T09:35:26;11.18;;;10.27;;
54897;SDS011;40800;52.704;6.398;2022-12-07T09:37:51;11.93;;;10.73;;
54897;SDS011;40800;52.704;6.398;2022-12-07T09:40:18;10.93;;;10.02;;
54897;SDS011;40800;52.704;6.398;2022-12-07T09:42:47;16.77;;;10.43;;
54897;SDS011;40800;52.704;6.398;2022-12-07T09:47:47;14.80;;;10.55;;
54897;SDS011;40800;52.704;6.398;2022-12-07T09:50:14;11.63;;;10.38;;
54897;SDS011;40800;52.704;6.398;2022-12-07T09:52:43;11.40;;;10.27;;
54897;SDS011;40800;52.704;6.398;2022-12-07T09:55:14;11.98;;;10.40;;
54897;SDS011;40800;52.704;6.398;2022-12-07T09:57:42;11.88;;;10.20;;
54897;SDS011;40800;52.704;6.398;2022-12-07T10:00:16;14.25;;;10.27;;
54897;SDS011;40800;52.704;6.398;2022-12-07T10:02:44;11.93;;;10.60;;
54897;SDS011;40800;52.704;6.398;2022-12-07T10:05:16;13.10;;;10.10;;
54897;SDS011;40800;52.704;6.398;2022-12-07T10:07:45;11.07;;;9.93;;
54897;SDS011;40800;52.704;6.398;2022-12-07T10:10:14;11.10;;;10.10;;
54897;SDS011;40800;52.704;6.398;2022-12-07T10:12:53;11.35;;;10.20;;
54897;SDS011;40800;52.704;6.398;2022-12-07T10:21:08;10.85;;;9.75;;
54897;SDS011;40800;52.704;6.398;2022-12-07T10:23:40;10.48;;;9.45;;
54897;SDS011;40800;52.704;6.398;2022-12-07T10:29:30;10.73;;;9.65;;
54897;SDS011;40800;52.704;6.398;2022-12-07T10:37:39;19.33;;;10.48;;
54897;SDS011;40800;52.704;6.398;2022-12-07T10:40:18;10.95;;;9.82;;
54897;SDS011;40800;52.704;6.398;2022-12-07T10:43:15;11.52;;;10.18;;
54897;SDS011;40800;52.704;6.398;2022-12-07T10:46:27;11.50;;;10.30;;
54897;SDS011;40800;52.704;6.398;2022-12-07T10:48:49;14.18;;;10.13;;
54897;SDS011;40800;52.704;6.398;2022-12-07T10:54:45;12.95;;;10.38;;
54897;SDS011;40800;52.704;6.398;2022-12-07T11:14:13;10.07;;;9.07;;
54897;SDS011;40800;52.704;6.398;2022-12-07T11:16:52;10.13;;;9.10;;
54897;SDS011;40800;52.704;6.398;2022-12-07T11:22:18;10.73;;;8.73;;
54897;SDS011;40800;52.704;6.398;2022-12-07T11:27:47;10.32;;;9.05;;
54897;SDS011;40800;52.704;6.398;2022-12-07T11:30:38;10.90;;;8.63;;
54897;SDS011;40800;52.704;6.398;2022-12-07T11:33:19;10.03;;;8.73;;
54897;SDS011;40800;52.704;6.398;2022-12-07T11:35:49;9.30;;;8.45;;
54897;SDS011;40800;52.704;6.398;2022-12-07T11:38:40;9.73;;;8.73;;
54897;SDS011;40800;52.704;6.398;2022-12-07T11:41:34;9.75;;;8.85;;
54897;SDS011;40800;52.704;6.398;2022-12-07T11:44:15;11.20;;;8.65;;
54897;SDS011;40800;52.704;6.398;2022-12-07T11:55:05;9.50;;;8.50;;
54897;SDS011;40800;52.704;6.398;2022-12-07T11:57:45;9.30;;;8.45;;
54897;SDS011;40800;52.704;6.398;2022-12-07T12:00:16;11.75;;;8.85;;
54897;SDS011;40800;52.704;6.398;2022-12-07T12:02:44;9.57;;;8.48;;
54897;SDS011;40800;52.704;6.398;2022-12-07T12:05:24;11.88;;;8.80;;
54897;SDS011;40800;52.704;6.398;2022-12-07T12:08:11;10.48;;;9.00;;
54897;SDS011;40800;52.704;6.398;2022-12-07T12:10:51;10.13;;;9.02;;
54897;SDS011;40800;52.704;6.398;2022-12-07T12:13:29;11.68;;;9.15;;
54897;SDS011;40800;52.704;6.398;2022-12-07T12:21:48;12.48;;;9.70;;
54897;SDS011;40800;52.704;6.398;2022-12-07T12:24:19;12.35;;;9.55;;
54897;SDS011;40800;52.704;6.398;2022-12-07T12:26:54;10.55;;;9.20;;
54897;SDS011;40800;52.704;6.398;2022-12-07T12:29:36;11.70;;;9.57;;
54897;SDS011;40800;52.704;6.398;2022-12-07T12:32:05;12.60;;;9.60;;
54897;SDS011;40800;52.704;6.398;2022-12-07T12:42:43;12.35;;;8.93;;
54897;SDS011;40800;52.704;6.398;2022-12-07T12:45:26;12.00;;;8.98;;
54897;SDS011;40800;52.704;6.398;2022-12-07T12:47:59;10.05;;;8.45;;
54897;SDS011;40800;52.704;6.398;2022-12-07T12:50:30;11.10;;;8.25;;
54897;SDS011;40800;52.704;6.398;2022-12-07T12:55:50;11.68;;;7.70;;
54897;SDS011;40800;52.704;6.398;2022-12-07T13:01:33;10.35;;;7.70;;
54897;SDS011;40800;52.704;6.398;2022-12-07T13:03:51;8.80;;;7.90;;
54897;SDS011;40800;52.704;6.398;2022-12-07T13:08:49;12.55;;;8.48;;
54897;SDS011;40800;52.704;6.398;2022-12-07T13:11:17;9.38;;;7.82;;
54897;SDS011;40800;52.704;6.398;2022-12-07T13:13:50;9.55;;;7.68;;
54897;SDS011;40800;52.704;6.398;2022-12-07T13:19:01;9.00;;;8.10;;
54897;SDS011;40800;52.704;6.398;2022-12-07T13:23:55;11.57;;;8.23;;
54897;SDS011;40800;52.704;6.398;2022-12-07T13:29:07;10.45;;;7.95;;
54897;SDS011;40800;52.704;6.398;2022-12-07T13:31:41;8.90;;;8.00;;
54897;SDS011;40800;52.704;6.398;2022-12-07T13:39:35;8.35;;;7.55;;
54897;SDS011;40800;52.704;6.398;2022-12-07T13:42:27;8.57;;;7.68;;
54897;SDS011;40800;52.704;6.398;2022-12-07T13:44:54;8.82;;;7.45;;
54897;SDS011;40800;52.704;6.398;2022-12-07T13:50:02;10.05;;;7.90;;
54897;SDS011;40800;52.704;6.398;2022-12-07T13:52:47;9.95;;;7.70;;
54897;SDS011;40800;52.704;6.398;2022-12-07T13:55:14;10.30;;;7.90;;
54897;SDS011;40800;52.704;6.398;2022-12-07T13:57:42;10.48;;;7.63;;
54897;SDS011;40800;52.704;6.398;2022-12-07T14:00:17;11.85;;;7.70;;
54897;SDS011;40800;52.704;6.398;2022-12-07T14:02:55;9.73;;;7.35;;
54897;SDS011;40800;52.704;6.398;2022-12-07T14:05:26;9.15;;;7.38;;
54897;SDS011;40800;52.704;6.398;2022-12-07T14:07:57;9.05;;;7.50;;
54897;SDS011;40800;52.704;6.398;2022-12-07T14:13:02;8.68;;;7.75;;
54897;SDS011;40800;52.704;6.398;2022-12-07T14:15:49;10.00;;;7.60;;
54897;SDS011;40800;52.704;6.398;2022-12-07T14:18:29;10.20;;;7.85;;
54897;SDS011;40800;52.704;6.398;2022-12-07T14:21:05;9.10;;;7.95;;
54897;SDS011;40800;52.704;6.398;2022-12-07T14:23:33;11.25;;;8.07;;
54897;SDS011;40800;52.704;6.398;2022-12-07T14:26:12;11.40;;;8.35;;
54897;SDS011;40800;52.704;6.398;2022-12-07T14:28:40;9.32;;;8.25;;
54897;SDS011;40800;52.704;6.398;2022-12-07T14:31:10;9.25;;;8.45;;
54897;SDS011;40800;52.704;6.398;2022-12-07T14:33:38;11.45;;;8.48;;
54897;SDS011;40800;52.704;6.398;2022-12-07T14:36:05;10.50;;;8.48;;
54897;SDS011;40800;52.704;6.398;2022-12-07T14:38:31;9.13;;;8.23;;
54897;SDS011;40800;52.704;6.398;2022-12-07T14:40:56;9.73;;;8.75;;
54897;SDS011;40800;52.704;6.398;2022-12-07T14:43:42;9.80;;;8.55;;
54897;SDS011;40800;52.704;6.398;2022-12-07T14:46:08;10.52;;;8.98;;
54897;SDS011;40800;52.704;6.398;2022-12-07T14:48:34;10.15;;;9.23;;
54897;SDS011;40800;52.704;6.398;2022-12-07T14:51:00;9.70;;;8.82;;
54897;SDS011;40800;52.704;6.398;2022-12-07T14:53:28;10.23;;;9.15;;
54897;SDS011;40800;52.704;6.398;2022-12-07T14:56:02;9.45;;;8.50;;
54897;SDS011;40800;52.704;6.398;2022-12-07T14:58:30;9.35;;;8.52;;
54897;SDS011;40800;52.704;6.398;2022-12-07T15:00:56;9.73;;;8.73;;
54897;SDS011;40800;52.704;6.398;2022-12-07T15:03:21;10.35;;;8.90;;
54897;SDS011;40800;52.704;6.398;2022-12-07T15:05:47;15.05;;;11.13;;
54897;SDS011;40800;52.704;6.398;2022-12-07T15:08:13;11.38;;;10.18;;
54897;SDS011;40800;52.704;6.398;2022-12-07T15:10:39;11.20;;;10.07;;
54897;SDS011;40800;52.704;6.398;2022-12-07T15:13:05;10.20;;;9.27;;
54897;SDS011;40800;52.704;6.398;2022-12-07T15:15:51;12.40;;;9.20;;
54897;SDS011;40800;52.704;6.398;2022-12-07T15:18:18;12.43;;;9.20;;
54897;SDS011;40800;52.704;6.398;2022-12-07T15:20:44;10.18;;;9.18;;
54897;SDS011;40800;52.704;6.398;2022-12-07T15:23:11;10.10;;;9.13;;
54897;SDS011;40800;52.704;6.398;2022-12-07T15:25:36;10.38;;;9.30;;
54897;SDS011;40800;52.704;6.398;2022-12-07T15:28:05;10.52;;;9.15;;
54897;SDS011;40800;52.704;6.398;2022-12-07T15:30:31;10.32;;;8.95;;
54897;SDS011;40800;52.704;6.398;2022-12-07T15:32:56;9.88;;;8.93;;
54897;SDS011;40800;52.704;6.398;2022-12-07T15:35:22;9.23;;;8.50;;
54897;SDS011;40800;52.704;6.398;2022-12-07T15:37:47;10.00;;;8.95;;
54897;SDS011;40800;52.704;6.398;2022-12-07T15:40:13;10.20;;;9.20;;
54897;SDS011;40800;52.704;6.398;2022-12-07T15:42:39;10.60;;;9.70;;
54897;SDS011;40800;52.704;6.398;2022-12-07T15:45:06;10.02;;;9.18;;
54897;SDS011;40800;52.704;6.398;2022-12-07T15:47:37;9.13;;;8.52;;
54897;SDS011;40800;52.704;6.398;2022-12-07T15:50:08;10.98;;;8.90;;
54897;SDS011;40800;52.704;6.398;2022-12-07T15:52:36;9.43;;;8.63;;
54897;SDS011;40800;52.704;6.398;2022-12-07T15:55:02;10.07;;;9.10;;
54897;SDS011;40800;52.704;6.398;2022-12-07T15:57:29;9.52;;;8.88;;
54897;SDS011;40800;52.704;6.398;2022-12-07T15:59:55;9.50;;;8.60;;
54897;SDS011;40800;52.704;6.398;2022-12-07T16:02:21;9.52;;;8.65;;
54897;SDS011;40800;52.704;6.398;2022-12-07T16:04:47;9.50;;;8.75;;
54897;SDS011;40800;52.704;6.398;2022-12-07T16:07:13;9.88;;;8.98;;
54897;SDS011;40800;52.704;6.398;2022-12-07T16:09:40;9.50;;;8.70;;
54897;SDS011;40800;52.704;6.398;2022-12-07T16:12:07;10.23;;;8.80;;
54897;SDS011;40800;52.704;6.398;2022-12-07T16:14:33;9.73;;;8.90;;
54897;SDS011;40800;52.704;6.398;2022-12-07T16:16:59;9.77;;;8.85;;
54897;SDS011;40800;52.704;6.398;2022-12-07T16:19:24;9.20;;;8.57;;
54897;SDS011;40800;52.704;6.398;2022-12-07T16:21:50;9.60;;;8.88;;
54897;SDS011;40800;52.704;6.398;2022-12-07T16:24:16;9.85;;;9.05;;
54897;SDS011;40800;52.704;6.398;2022-12-07T16:26:42;10.15;;;9.15;;
54897;SDS011;40800;52.704;6.398;2022-12-07T16:29:12;9.77;;;8.98;;
54897;SDS011;40800;52.704;6.398;2022-12-07T16:31:39;9.80;;;8.95;;
54897;SDS011;40800;52.704;6.398;2022-12-07T16:34:06;10.45;;;9.60;;
54897;SDS011;40800;52.704;6.398;2022-12-07T16:36:32;11.48;;;10.27;;
54897;SDS011;40800;52.704;6.398;2022-12-07T16:38:58;10.70;;;9.80;;
54897;SDS011;40800;52.704;6.398;2022-12-07T16:41:24;11.57;;;10.50;;
54897;SDS011;40800;52.704;6.398;2022-12-07T16:43:50;10.65;;;9.70;;
54897;SDS011;40800;52.704;6.398;2022-12-07T16:46:15;11.35;;;10.25;;
54897;SDS011;40800;52.704;6.398;2022-12-07T16:48:41;10.45;;;9.57;;
54897;SDS011;40800;52.704;6.398;2022-12-07T16:51:08;11.18;;;10.20;;
54897;SDS011;40800;52.704;6.398;2022-12-07T16:53:36;11.00;;;9.95;;
54897;SDS011;40800;52.704;6.398;2022-12-07T16:56:03;11.27;;;9.30;;